createdAt,value
2022-12-25T00:00:47.905Z,25.72
2022-12-25T02:31:41.020Z,25.72
2022-12-25T02:33:40.868Z,25.70
2022-12-25T02:34:40.845Z,25.72
2022-12-25T02:35:40.819Z,25.72
2022-12-25T02:36:40.791Z,25.70
2022-12-25T02:37:40.761Z,25.70
2022-12-25T02:38:40.723Z,25.72
2022-12-25T02:39:40.695Z,25.70
2022-12-25T02:40:40.667Z,25.70
2022-12-25T02:41:40.638Z,25.75
2022-12-25T02:42:40.614Z,25.70
2022-12-25T02:43:40.592Z,25.72
2022-12-25T02:44:40.567Z,25.70
2022-12-25T02:45:40.620Z,25.73
2022-12-25T02:46:40.516Z,25.72
2022-12-25T02:47:40.515Z,25.70
2022-12-25T02:48:40.467Z,25.70
2022-12-25T02:49:40.441Z,25.73
2022-12-25T02:50:40.416Z,25.73
2022-12-25T02:51:40.389Z,25.72
2022-12-25T02:52:40.370Z,25.72
2022-12-25T02:53:40.334Z,25.72
2022-12-25T02:54:40.310Z,25.72
2022-12-25T02:55:40.275Z,25.73
2022-12-25T02:56:40.254Z,25.70
2022-12-25T02:57:40.221Z,25.70
2022-12-25T02:58:40.197Z,25.72
2022-12-25T02:59:40.177Z,25.72
2022-12-25T03:00:40.140Z,25.70
2022-12-25T03:01:40.297Z,25.72
2022-12-25T03:02:40.081Z,25.70
2022-12-25T03:03:40.207Z,25.73
2022-12-25T03:04:40.024Z,25.73
2022-12-25T03:05:40.019Z,25.72
2022-12-25T03:06:39.965Z,25.72
2022-12-25T03:07:39.931Z,25.72
2022-12-25T03:08:39.897Z,25.73
2022-12-25T03:09:39.867Z,25.73
2022-12-25T03:10:39.849Z,25.73
2022-12-25T03:11:39.807Z,25.75
2022-12-25T03:12:39.807Z,25.73
2022-12-25T03:13:39.754Z,25.72
2022-12-25T03:14:39.731Z,25.73
2022-12-25T03:15:39.694Z,25.72
2022-12-25T03:16:39.709Z,25.72
2022-12-25T04:45:37.062Z,25.70
2022-12-25T04:50:36.910Z,25.69
2022-12-25T04:51:36.876Z,25.72
2022-12-25T05:08:36.414Z,25.70
2022-12-25T05:09:36.380Z,25.72
2022-12-25T06:47:33.708Z,25.66
2022-12-25T06:48:33.655Z,25.68
2022-12-25T06:49:33.626Z,25.68
2022-12-25T07:03:33.254Z,25.68
2022-12-25T07:04:33.207Z,25.69
2022-12-25T07:05:33.172Z,25.68
2022-12-25T07:06:33.152Z,25.68
2022-12-25T07:07:33.115Z,25.69
2022-12-25T07:08:33.096Z,25.68
2022-12-25T07:09:33.059Z,25.68
2022-12-25T07:10:33.029Z,25.69
2022-12-25T07:11:32.996Z,25.68
2022-12-25T07:12:32.976Z,25.68
2022-12-25T07:13:32.948Z,25.68
2022-12-25T07:14:32.944Z,25.68
2022-12-25T07:15:32.908Z,25.69
2022-12-25T07:16:32.954Z,25.66
2022-12-25T07:17:32.847Z,25.68
2022-12-25T07:18:32.817Z,25.66
2022-12-25T07:19:32.807Z,25.68
2022-12-25T07:20:32.761Z,25.69
2022-12-25T07:21:32.734Z,25.69
2022-12-25T07:22:32.708Z,25.69
2022-12-25T07:23:32.687Z,25.69
2022-12-25T07:24:32.655Z,25.69
2022-12-25T07:25:37.227Z,25.69
2022-12-25T07:26:32.603Z,25.70
2022-12-25T07:27:32.576Z,25.70
2022-12-25T07:28:32.592Z,25.66
2022-12-25T07:29:32.539Z,25.69
2022-12-25T07:30:32.503Z,25.68
2022-12-25T07:31:32.488Z,25.68
2022-12-25T07:32:32.437Z,25.69
2022-12-25T07:33:32.417Z,25.68
2022-12-25T07:34:32.394Z,25.70
2022-12-25T07:35:32.401Z,25.69
2022-12-25T07:36:32.354Z,25.68
2022-12-25T07:37:32.319Z,25.69
2022-12-25T07:38:32.268Z,25.70
2022-12-25T07:39:32.244Z,25.69
2022-12-25T07:40:32.228Z,25.70
2022-12-25T07:41:32.205Z,25.69
2022-12-25T07:42:32.165Z,25.68
2022-12-25T07:43:32.141Z,25.66
2022-12-25T07:44:32.115Z,25.69
2022-12-25T07:45:32.124Z,25.68
2022-12-25T07:46:32.048Z,25.69
2022-12-25T07:47:32.036Z,25.70
2022-12-25T07:48:32.016Z,25.69
2022-12-25T07:49:31.955Z,25.69
2022-12-25T07:50:31.928Z,25.69
2022-12-25T07:51:31.924Z,25.68
2022-12-25T07:53:31.843Z,25.68
2022-12-25T07:54:31.805Z,25.69
2022-12-25T07:55:31.777Z,25.68
2022-12-25T07:56:31.751Z,25.70
2022-12-25T07:57:31.721Z,25.68
2022-12-25T07:58:31.697Z,25.69
2022-12-25T07:59:31.660Z,25.69
2022-12-25T08:00:31.654Z,25.70
2022-12-25T08:01:31.711Z,25.72
2022-12-25T08:02:31.824Z,25.70
2022-12-25T08:03:31.722Z,25.69
2022-12-25T08:04:31.509Z,25.69
2022-12-25T08:05:31.481Z,25.68
2022-12-25T08:06:31.491Z,25.68
2022-12-25T08:07:31.455Z,25.69
2022-12-25T08:08:31.392Z,25.69
2022-12-25T08:09:31.363Z,25.69
2022-12-25T08:10:31.328Z,25.69
2022-12-25T08:11:31.297Z,25.69
2022-12-25T08:12:31.270Z,25.69
2022-12-25T08:13:31.250Z,25.68
2022-12-25T08:14:31.204Z,25.68
2022-12-25T08:15:31.175Z,25.70
2022-12-25T08:16:31.214Z,25.66
2022-12-25T08:17:31.123Z,25.69
2022-12-25T08:18:31.099Z,25.68
2022-12-25T08:19:31.073Z,25.72
2022-12-25T08:20:31.041Z,25.70
2022-12-25T08:21:31.017Z,25.69
2022-12-25T08:22:30.990Z,25.68
2022-12-25T08:23:30.983Z,25.69
2022-12-25T08:24:30.923Z,25.68
2022-12-25T08:25:30.892Z,25.68
2022-12-25T08:26:30.863Z,25.68
2022-12-25T08:27:30.832Z,25.69
2022-12-25T08:28:30.810Z,25.69
2022-12-25T08:29:30.798Z,25.69
2022-12-25T08:30:30.825Z,25.69
2022-12-25T08:31:30.873Z,25.70
2022-12-25T08:32:30.696Z,25.70
2022-12-25T08:33:30.678Z,25.69
2022-12-25T08:34:30.643Z,25.70
2022-12-25T08:35:30.611Z,25.72
2022-12-25T08:36:30.579Z,25.70
2022-12-25T08:37:30.549Z,25.69
2022-12-25T08:38:30.524Z,25.70
2022-12-25T08:39:30.511Z,25.69
2022-12-25T08:40:30.462Z,25.72
2022-12-25T08:41:30.431Z,25.72
2022-12-25T08:42:30.393Z,25.70
2022-12-25T08:43:30.365Z,25.70
2022-12-25T08:44:30.329Z,25.70
2022-12-25T08:45:35.034Z,25.72
2022-12-25T08:46:30.356Z,25.72
2022-12-25T08:47:30.236Z,25.72
2022-12-25T08:48:30.199Z,25.70
2022-12-25T08:49:30.166Z,25.70
2022-12-25T08:50:30.132Z,25.70
2022-12-25T08:51:30.110Z,25.73
2022-12-25T08:52:30.073Z,25.70
2022-12-25T08:53:30.030Z,25.69
2022-12-25T08:54:29.999Z,25.72
2022-12-25T08:55:29.997Z,25.72
2022-12-25T08:56:29.984Z,25.69
2022-12-25T08:57:29.917Z,25.69
2022-12-25T08:58:29.872Z,25.68
2022-12-25T08:59:29.834Z,25.70
2022-12-25T09:00:29.798Z,25.70
2022-12-25T09:01:30.010Z,25.73
2022-12-25T09:02:29.912Z,25.70
2022-12-25T09:03:29.737Z,25.70
2022-12-25T09:04:29.678Z,25.68
2022-12-25T09:05:29.651Z,25.70
2022-12-25T09:06:29.613Z,25.69
2022-12-25T09:07:29.581Z,25.69
2022-12-25T09:08:29.555Z,25.69
2022-12-25T09:09:29.520Z,25.72
2022-12-25T09:10:29.494Z,25.68
2022-12-25T09:11:29.508Z,25.70
2022-12-25T09:12:29.428Z,25.70
2022-12-25T09:13:29.398Z,25.69
2022-12-25T09:14:29.367Z,25.70
2022-12-25T09:15:29.413Z,25.69
2022-12-25T09:16:29.415Z,25.70
2022-12-25T09:17:29.281Z,25.70
2022-12-25T09:18:29.256Z,25.72
2022-12-25T09:19:29.232Z,25.69
2022-12-25T09:20:29.199Z,25.70
2022-12-25T09:21:29.190Z,25.72
2022-12-25T09:22:29.144Z,25.73
2022-12-25T09:23:29.125Z,25.75
2022-12-25T09:24:29.095Z,25.73
2022-12-25T09:25:29.082Z,25.73
2022-12-25T09:26:29.046Z,25.73
2022-12-25T09:27:29.039Z,25.73
2022-12-25T09:28:28.977Z,25.72
2022-12-25T09:29:28.945Z,25.75
2022-12-25T09:30:28.927Z,25.75
2022-12-25T09:31:28.942Z,25.75
2022-12-25T09:32:28.851Z,25.73
2022-12-25T09:33:28.815Z,25.75
2022-12-25T09:34:28.784Z,25.73
2022-12-25T09:35:28.764Z,25.75
2022-12-25T09:36:28.725Z,25.75
2022-12-25T09:37:28.687Z,25.75
2022-12-25T09:38:28.655Z,25.76
2022-12-25T09:39:28.628Z,25.76
2022-12-25T09:40:28.597Z,25.76
2022-12-25T09:41:28.577Z,25.76
2022-12-25T09:42:28.545Z,25.75
2022-12-25T09:43:28.538Z,25.75
2022-12-25T09:44:28.487Z,25.76
2022-12-25T09:45:28.474Z,25.75
2022-12-25T09:46:34.930Z,25.75
2022-12-25T09:47:28.391Z,25.75
2022-12-25T09:48:28.361Z,25.76
2022-12-25T09:49:28.332Z,25.76
2022-12-25T09:50:28.301Z,25.77
2022-12-25T09:51:28.249Z,25.76
2022-12-25T09:52:28.226Z,25.76
2022-12-25T09:53:28.189Z,25.77
2022-12-25T09:54:28.157Z,25.75
2022-12-25T09:55:28.130Z,25.76
2022-12-25T09:56:28.110Z,25.75
2022-12-25T09:57:28.073Z,25.77
2022-12-25T09:58:28.052Z,25.73
2022-12-25T09:59:28.050Z,25.77
2022-12-25T10:00:27.989Z,25.75
2022-12-25T10:01:28.105Z,25.76
2022-12-25T10:02:28.209Z,25.76
2022-12-25T10:03:27.961Z,25.75
2022-12-25T10:04:27.883Z,25.77
2022-12-25T10:05:27.847Z,25.77
2022-12-25T10:06:27.822Z,25.76
2022-12-25T10:07:27.789Z,25.75
2022-12-25T10:08:27.767Z,25.77
2022-12-25T10:09:27.739Z,25.75
2022-12-25T10:10:27.712Z,25.76
2022-12-25T10:11:27.676Z,25.76
2022-12-25T10:12:27.646Z,25.79
2022-12-25T10:13:27.631Z,25.77
2022-12-25T10:14:27.590Z,25.77
2022-12-25T10:15:27.587Z,25.76
2022-12-25T10:16:27.639Z,25.77
2022-12-25T10:17:27.521Z,25.77
2022-12-25T10:18:27.495Z,25.76
2022-12-25T10:19:27.465Z,25.76
2022-12-25T10:20:27.445Z,25.76
2022-12-25T10:21:27.412Z,25.77
2022-12-25T10:22:27.391Z,25.76
2022-12-25T10:23:27.371Z,25.77
2022-12-25T10:24:27.334Z,25.75
2022-12-25T10:25:27.320Z,25.76
2022-12-25T10:26:27.275Z,25.79
2022-12-25T10:27:27.245Z,25.75
2022-12-25T10:28:27.216Z,25.76
2022-12-25T10:29:27.190Z,25.77
2022-12-25T10:30:27.183Z,25.76
2022-12-25T10:31:27.226Z,25.75
2022-12-25T10:32:27.104Z,25.75
2022-12-25T10:33:27.078Z,25.79
2022-12-25T10:34:27.043Z,25.76
2022-12-25T10:35:27.013Z,25.77
2022-12-25T10:36:26.977Z,25.79
2022-12-25T10:37:26.942Z,25.76
2022-12-25T10:38:26.920Z,25.76
2022-12-25T10:39:26.885Z,25.77
2022-12-25T10:40:26.843Z,25.77
2022-12-25T10:41:26.812Z,25.79
2022-12-25T10:42:26.779Z,25.77
2022-12-25T10:43:26.747Z,25.77
2022-12-25T10:44:26.749Z,25.79
2022-12-25T10:45:26.694Z,25.79
2022-12-25T10:46:26.798Z,25.79
2022-12-25T10:47:26.688Z,25.81
2022-12-25T10:48:26.602Z,25.77
2022-12-25T10:49:26.587Z,25.77
2022-12-25T10:50:26.533Z,25.77
2022-12-25T10:51:26.502Z,25.76
2022-12-25T10:52:26.473Z,25.76
2022-12-25T10:53:26.454Z,25.77
2022-12-25T10:54:26.419Z,25.77
2022-12-25T10:55:29.202Z,25.76
2022-12-25T10:56:26.347Z,25.77
2022-12-25T10:57:26.317Z,25.76
2022-12-25T10:58:26.284Z,25.77
2022-12-25T10:59:26.238Z,25.76
2022-12-25T11:00:26.202Z,25.79
2022-12-25T11:01:26.303Z,25.77
2022-12-25T11:02:26.324Z,25.77
2022-12-25T11:03:26.262Z,25.79
2022-12-25T11:04:26.051Z,25.81
2022-12-25T11:05:26.013Z,25.80
2022-12-25T11:06:25.986Z,25.77
2022-12-25T11:07:25.944Z,25.80
2022-12-25T11:08:25.911Z,25.81
2022-12-25T11:09:25.892Z,25.80
2022-12-25T11:10:25.846Z,25.79
2022-12-25T11:11:25.814Z,25.80
2022-12-25T11:12:25.780Z,25.80
2022-12-25T11:13:25.748Z,25.83
2022-12-25T11:14:25.714Z,25.83
2022-12-25T11:15:25.684Z,25.81
2022-12-25T11:16:25.769Z,25.83
2022-12-25T11:17:25.614Z,25.83
2022-12-25T11:18:25.583Z,25.80
2022-12-25T11:19:25.578Z,25.80
2022-12-25T11:20:25.505Z,25.83
2022-12-25T11:21:25.473Z,25.83
2022-12-25T11:22:25.487Z,25.83
2022-12-25T11:23:25.412Z,25.83
2022-12-25T11:24:25.403Z,25.83
2022-12-25T11:25:25.313Z,25.83
2022-12-25T11:26:25.282Z,25.81
2022-12-25T11:27:25.237Z,25.83
2022-12-25T11:28:25.204Z,25.83
2022-12-25T11:29:25.172Z,25.84
2022-12-25T11:30:25.132Z,25.84
2022-12-25T11:31:25.162Z,25.83
2022-12-25T11:32:25.052Z,25.84
2022-12-25T11:33:25.020Z,25.84
2022-12-25T11:34:24.982Z,25.81
2022-12-25T11:35:24.974Z,25.83
2022-12-25T11:36:24.918Z,25.81
2022-12-25T11:37:24.887Z,25.84
2022-12-25T11:38:24.864Z,25.81
2022-12-25T11:39:24.826Z,25.86
2022-12-25T11:40:24.774Z,25.83
2022-12-25T11:41:24.739Z,25.84
2022-12-25T11:42:24.703Z,25.86
2022-12-25T11:43:24.665Z,25.83
2022-12-25T11:44:24.623Z,25.84
2022-12-25T11:45:24.591Z,25.84
2022-12-25T11:46:24.693Z,25.84
2022-12-25T11:47:24.512Z,25.81
2022-12-25T11:48:24.477Z,25.81
2022-12-25T11:49:24.432Z,25.81
2022-12-25T11:50:24.402Z,25.81
2022-12-25T11:51:24.388Z,25.81
2022-12-25T11:52:24.338Z,25.84
2022-12-25T11:53:24.299Z,25.81
2022-12-25T11:54:24.250Z,25.84
2022-12-25T11:55:24.233Z,25.81
2022-12-25T11:56:24.194Z,25.81
2022-12-25T11:57:24.138Z,25.79
2022-12-25T11:58:24.110Z,25.83
2022-12-25T11:59:24.123Z,25.81
2022-12-25T12:00:24.124Z,25.81
2022-12-25T12:01:24.045Z,25.81
2022-12-25T12:02:24.109Z,25.81
2022-12-25T12:03:24.025Z,25.81
2022-12-25T12:04:29.409Z,25.84
2022-12-25T12:05:23.849Z,25.83
2022-12-25T12:06:23.817Z,25.81
2022-12-25T12:07:23.815Z,25.84
2022-12-25T12:08:23.761Z,25.83
2022-12-25T12:09:23.714Z,25.83
2022-12-25T12:10:23.684Z,25.83
2022-12-25T12:11:23.661Z,25.83
2022-12-25T12:12:23.613Z,25.83
2022-12-25T12:13:23.582Z,25.81
2022-12-25T12:14:23.548Z,25.86
2022-12-25T12:15:23.519Z,25.83
2022-12-25T12:16:23.583Z,25.83
2022-12-25T12:17:23.454Z,25.83
2022-12-25T12:18:23.441Z,25.83
2022-12-25T12:19:23.378Z,25.83
2022-12-25T12:20:23.353Z,25.84
2022-12-25T12:21:23.322Z,25.83
2022-12-25T12:22:23.277Z,25.86
2022-12-25T12:23:23.354Z,25.84
2022-12-25T12:24:23.207Z,25.84
2022-12-25T12:25:23.180Z,25.81
2022-12-25T12:26:23.163Z,25.86
2022-12-25T12:27:23.124Z,25.81
2022-12-25T12:28:23.099Z,25.84
2022-12-25T12:29:23.053Z,25.83
2022-12-25T12:30:23.027Z,25.83
2022-12-25T12:31:23.044Z,25.83
2022-12-25T12:32:22.954Z,25.83
2022-12-25T12:33:22.938Z,25.86
2022-12-25T12:34:22.880Z,25.81
2022-12-25T12:35:22.863Z,25.86
2022-12-25T12:36:34.608Z,25.83
2022-12-25T12:37:24.991Z,25.84
2022-12-25T12:38:22.748Z,25.84
2022-12-25T12:39:22.774Z,25.84
2022-12-25T12:40:22.699Z,25.83
2022-12-25T12:41:22.651Z,25.86
2022-12-25T12:42:22.616Z,25.84
2022-12-25T12:43:22.593Z,25.86
2022-12-25T12:44:22.565Z,25.86
2022-12-25T12:45:22.529Z,25.86
2022-12-25T12:46:28.065Z,25.84
2022-12-25T12:47:22.468Z,25.86
2022-12-25T12:48:22.432Z,25.86
2022-12-25T12:49:22.422Z,25.86
2022-12-25T12:50:22.360Z,25.84
2022-12-25T12:51:22.325Z,25.87
2022-12-25T12:52:22.292Z,25.87
2022-12-25T12:53:22.273Z,25.89
2022-12-25T12:54:22.251Z,25.84
2022-12-25T12:55:22.209Z,25.86
2022-12-25T12:56:22.158Z,25.84
2022-12-25T12:57:22.119Z,25.87
2022-12-25T12:58:22.088Z,25.87
2022-12-25T12:59:22.064Z,25.84
2022-12-25T13:00:22.023Z,25.86
2022-12-25T13:01:22.216Z,25.86
2022-12-25T13:02:22.116Z,25.84
2022-12-25T13:03:21.994Z,25.87
2022-12-25T13:04:21.885Z,25.84
2022-12-25T13:05:21.867Z,25.84
2022-12-25T13:06:21.837Z,25.83
2022-12-25T13:07:21.802Z,25.83
2022-12-25T13:08:21.770Z,25.83
2022-12-25T13:09:21.735Z,25.86
2022-12-25T13:10:21.765Z,25.86
2022-12-25T13:11:21.703Z,25.83
2022-12-25T13:12:21.694Z,25.86
2022-12-25T13:13:21.620Z,25.87
2022-12-25T13:14:21.603Z,25.83
2022-12-25T13:15:21.563Z,25.83
2022-12-25T13:16:21.575Z,25.84
2022-12-25T13:17:21.505Z,25.86
2022-12-25T13:18:21.477Z,25.86
2022-12-25T13:19:21.460Z,25.83
2022-12-25T13:20:21.430Z,25.86
2022-12-25T13:21:21.406Z,25.86
2022-12-25T13:22:21.380Z,25.84
2022-12-25T13:23:21.347Z,25.83
2022-12-25T13:24:21.322Z,25.83
2022-12-25T13:25:21.286Z,25.84
2022-12-25T13:26:21.317Z,25.84
2022-12-25T13:27:21.251Z,25.84
2022-12-25T13:28:21.193Z,25.83
2022-12-25T13:29:21.164Z,25.86
2022-12-25T13:30:21.128Z,25.83
2022-12-25T13:31:21.226Z,25.84
2022-12-25T13:32:21.073Z,25.86
2022-12-25T13:33:21.103Z,25.84
2022-12-25T13:34:21.001Z,25.84
2022-12-25T13:35:20.975Z,25.84
2022-12-25T13:36:20.937Z,25.83
2022-12-25T13:37:20.907Z,25.83
2022-12-25T13:38:20.870Z,25.84
2022-12-25T13:39:20.835Z,25.83
2022-12-25T13:40:20.811Z,25.81
2022-12-25T13:41:20.763Z,25.84
2022-12-25T13:42:20.728Z,25.84
2022-12-25T13:43:20.727Z,25.80
2022-12-25T13:44:20.696Z,25.83
2022-12-25T13:45:20.632Z,25.83
2022-12-25T13:46:20.631Z,25.83
2022-12-25T13:47:20.577Z,25.83
2022-12-25T13:48:20.527Z,25.83
2022-12-25T13:49:20.521Z,25.81
2022-12-25T13:50:20.513Z,25.81
2022-12-25T13:51:20.448Z,25.83
2022-12-25T13:52:20.424Z,25.83
2022-12-25T13:53:20.366Z,25.81
2022-12-25T13:54:20.329Z,25.81
2022-12-25T13:55:20.297Z,25.81
2022-12-25T13:56:20.258Z,25.80
2022-12-25T13:57:20.223Z,25.81
2022-12-25T13:58:20.192Z,25.80
2022-12-25T13:59:20.185Z,25.80
2022-12-25T14:00:20.123Z,25.83
2022-12-25T14:01:20.227Z,25.81
2022-12-25T14:02:20.316Z,25.83
2022-12-25T14:03:20.146Z,25.80
2022-12-25T14:04:19.976Z,25.83
2022-12-25T14:05:19.951Z,25.83
2022-12-25T14:06:19.905Z,25.81
2022-12-25T14:07:19.876Z,25.81
2022-12-25T14:08:19.847Z,25.81
2022-12-25T14:09:19.806Z,25.80
2022-12-25T14:10:19.777Z,25.80
2022-12-25T14:11:19.748Z,25.81
2022-12-25T14:12:19.719Z,25.79
2022-12-25T14:13:19.682Z,25.81
2022-12-25T15:40:16.809Z,25.70
2022-12-25T15:41:16.763Z,25.69
2022-12-25T15:42:16.884Z,25.70
2022-12-25T15:43:40.404Z,25.70
2022-12-25T15:44:16.680Z,25.72
2022-12-25T15:45:16.646Z,25.70
2022-12-25T15:46:16.662Z,25.69
2022-12-25T15:47:16.610Z,25.73
2022-12-25T15:48:16.552Z,25.73
2022-12-25T15:49:16.525Z,25.72
2022-12-25T15:50:16.554Z,25.72
2022-12-25T15:51:16.489Z,25.70
2022-12-25T15:52:16.436Z,25.69
2022-12-25T15:53:16.406Z,25.72
2022-12-25T15:54:16.365Z,25.68
2022-12-25T15:55:16.334Z,25.72
2022-12-25T15:56:16.314Z,25.72
2022-12-25T15:57:16.275Z,25.73
2022-12-25T15:58:16.234Z,25.70
2022-12-25T15:59:16.234Z,25.73
2022-12-25T16:00:16.182Z,25.73
2022-12-25T16:01:16.337Z,25.72
2022-12-25T16:02:16.269Z,25.70
2022-12-25T16:03:16.191Z,25.70
2022-12-25T16:04:16.078Z,25.70
2022-12-25T16:05:16.059Z,25.69
2022-12-25T16:06:16.023Z,25.72
2022-12-25T16:07:16.023Z,25.70
2022-12-25T16:08:15.970Z,25.69
2022-12-25T16:09:15.937Z,25.72
2022-12-25T16:10:15.910Z,25.70
2022-12-25T16:11:15.875Z,25.70
2022-12-25T16:12:15.857Z,25.68
2022-12-25T16:13:15.819Z,25.68
2022-12-25T16:14:15.787Z,25.70
2022-12-25T16:15:15.778Z,25.73
2022-12-25T16:16:15.773Z,25.69
2022-12-25T16:17:15.781Z,25.73
2022-12-25T16:18:15.655Z,25.72
2022-12-25T16:19:15.643Z,25.69
2022-12-25T16:20:15.593Z,25.70
2022-12-25T16:21:15.564Z,25.72
2022-12-25T16:22:15.524Z,25.69
2022-12-25T16:23:15.524Z,25.68
2022-12-25T16:24:15.465Z,25.70
2022-12-25T16:25:15.432Z,25.68
2022-12-25T16:26:15.407Z,25.70
2022-12-25T16:27:15.380Z,25.70
2022-12-25T16:28:15.350Z,25.73
2022-12-25T16:29:15.307Z,25.70
2022-12-25T16:30:15.266Z,25.70
2022-12-25T16:31:15.368Z,25.69
2022-12-25T16:32:15.203Z,25.69
2022-12-25T16:33:15.168Z,25.69
2022-12-25T16:34:15.198Z,25.69
2022-12-25T16:35:15.112Z,25.70
2022-12-25T16:36:15.071Z,25.69
2022-12-25T16:37:15.040Z,25.69
2022-12-25T16:38:15.018Z,25.69
2022-12-25T16:39:15.012Z,25.69
2022-12-25T16:40:14.947Z,25.69
2022-12-25T16:41:14.909Z,25.70
2022-12-25T16:42:14.878Z,25.72
2022-12-25T16:43:20.296Z,25.69
2022-12-25T16:44:14.820Z,25.72
2022-12-25T16:45:14.796Z,25.69
2022-12-25T16:46:14.790Z,25.72
2022-12-25T16:47:14.708Z,25.73
2022-12-25T16:48:14.678Z,25.72
2022-12-25T16:49:14.650Z,25.72
2022-12-25T16:50:14.625Z,25.72
2022-12-25T16:51:14.603Z,25.70
2022-12-25T16:52:14.558Z,25.72
2022-12-25T16:53:14.534Z,25.69
2022-12-25T16:54:14.493Z,25.72
2022-12-25T16:55:14.484Z,25.73
2022-12-25T16:56:14.436Z,25.70
2022-12-25T16:57:14.427Z,25.73
2022-12-25T16:58:14.381Z,25.70
2022-12-25T16:59:14.373Z,25.70
2022-12-25T17:00:14.325Z,25.69
2022-12-25T17:01:14.294Z,25.70
2022-12-25T17:02:14.424Z,25.72
2022-12-25T17:03:14.342Z,25.69
2022-12-25T17:04:14.313Z,25.73
2022-12-25T17:05:14.178Z,25.70
2022-12-25T17:06:14.138Z,25.72
2022-12-25T17:07:14.131Z,25.70
2022-12-25T17:08:14.085Z,25.72
2022-12-25T17:09:14.057Z,25.72
2022-12-25T17:10:14.056Z,25.72
2022-12-25T17:11:14.046Z,25.72
2022-12-25T17:12:13.985Z,25.72
2022-12-25T17:13:13.964Z,25.72
2022-12-25T17:14:13.927Z,25.70
2022-12-25T17:15:13.904Z,25.72
2022-12-25T17:16:13.948Z,25.72
2022-12-25T17:17:13.848Z,25.72
2022-12-25T17:18:13.810Z,25.73
2022-12-25T17:19:13.779Z,25.70
2022-12-25T17:20:13.768Z,25.73
2022-12-25T17:21:13.721Z,25.69
2022-12-25T17:22:13.692Z,25.70
2022-12-25T17:23:13.666Z,25.72
2022-12-25T17:24:13.631Z,25.73
2022-12-25T17:25:13.607Z,25.70
2022-12-25T17:26:13.580Z,25.70
2022-12-25T17:27:13.592Z,25.70
2022-12-25T17:28:13.513Z,25.69
2022-12-25T17:29:17.250Z,25.69
2022-12-25T17:30:13.459Z,25.70
2022-12-25T17:31:13.494Z,25.72
2022-12-25T17:32:13.391Z,25.70
2022-12-25T17:33:13.364Z,25.70
2022-12-25T17:34:13.341Z,25.73
2022-12-25T17:35:13.309Z,25.70
2022-12-25T17:36:13.282Z,25.69
2022-12-25T17:37:13.286Z,25.70
2022-12-25T17:38:13.216Z,25.70
2022-12-25T17:39:13.206Z,25.69
2022-12-25T17:40:13.173Z,25.70
2022-12-25T17:41:13.160Z,25.69
2022-12-25T17:42:13.115Z,25.69
2022-12-25T17:43:19.020Z,25.69
2022-12-25T17:44:13.045Z,25.70
2022-12-25T17:45:13.036Z,25.69
2022-12-25T17:46:13.096Z,25.70
2022-12-25T17:47:13.020Z,25.72
2022-12-25T17:48:12.925Z,25.69
2022-12-25T17:49:12.892Z,25.68
2022-12-25T17:50:12.864Z,25.68
2022-12-25T17:51:12.861Z,25.70
2022-12-25T17:52:12.810Z,25.69
2022-12-25T17:53:12.790Z,25.72
2022-12-25T17:54:12.743Z,25.70
2022-12-25T17:55:12.774Z,25.72
2022-12-25T17:56:12.694Z,25.70
2022-12-25T17:57:12.663Z,25.69
2022-12-25T17:58:12.627Z,25.69
2022-12-25T17:59:12.620Z,25.72
2022-12-25T18:00:12.561Z,25.69
2022-12-25T18:01:12.555Z,25.68
2022-12-25T18:02:12.581Z,25.69
2022-12-25T18:03:12.646Z,25.69
2022-12-25T18:04:12.546Z,25.70
2022-12-25T18:05:12.432Z,25.69
2022-12-25T18:06:12.401Z,25.70
2022-12-25T18:07:12.377Z,25.69
2022-12-25T18:08:12.339Z,25.69
2022-12-25T18:09:12.310Z,25.70
2022-12-25T18:10:12.289Z,25.66
2022-12-25T18:11:12.263Z,25.69
2022-12-25T18:12:12.236Z,25.65
2022-12-25T18:13:12.217Z,25.68
2022-12-25T18:14:12.183Z,25.69
2022-12-25T18:15:12.176Z,25.68
2022-12-25T18:16:12.178Z,25.69
2022-12-25T18:17:12.110Z,25.69
2022-12-25T18:18:12.077Z,25.69
2022-12-25T18:19:12.043Z,25.68
2022-12-25T18:20:12.018Z,25.69
2022-12-25T18:21:12.002Z,25.69
2022-12-25T18:22:11.966Z,25.68
2022-12-25T18:23:11.939Z,25.70
2022-12-25T18:24:11.914Z,25.69
2022-12-25T18:25:11.916Z,25.69
2022-12-25T18:26:11.868Z,25.69
2022-12-25T18:27:11.838Z,25.69
2022-12-25T18:28:11.807Z,25.68
2022-12-25T18:29:11.794Z,25.69
2022-12-25T18:30:11.801Z,25.66
2022-12-25T18:31:11.820Z,25.68
2022-12-25T18:32:11.703Z,25.69
2022-12-25T18:33:11.671Z,25.69
2022-12-25T18:34:11.644Z,25.68
2022-12-25T18:35:11.622Z,25.68
2022-12-25T18:36:11.590Z,25.66
2022-12-25T18:37:11.561Z,25.66
2022-12-25T18:38:11.540Z,25.66
2022-12-25T18:39:11.510Z,25.66
2022-12-25T18:40:11.487Z,25.70
2022-12-25T18:41:11.474Z,25.66
2022-12-25T18:42:11.428Z,25.69
2022-12-25T18:43:11.395Z,25.68
2022-12-25T18:44:11.368Z,25.68
2022-12-25T18:45:11.342Z,25.69
2022-12-25T18:46:11.352Z,25.68
2022-12-25T18:47:11.317Z,25.69
2022-12-25T18:48:11.263Z,25.68
2022-12-25T18:49:11.216Z,25.66
2022-12-25T18:50:11.199Z,25.65
2022-12-25T18:51:11.161Z,25.66
2022-12-25T18:52:48.983Z,25.66
2022-12-25T18:53:11.096Z,25.66
2022-12-25T18:54:11.067Z,25.68
2022-12-25T18:55:11.044Z,25.68
2022-12-25T18:56:11.011Z,25.66
2022-12-25T18:57:10.988Z,25.66
2022-12-25T18:58:10.961Z,25.66
2022-12-25T18:59:10.934Z,25.66
2022-12-25T19:00:10.966Z,25.66
2022-12-25T19:01:10.976Z,25.65
2022-12-25T19:02:10.983Z,25.65
2022-12-25T19:03:10.911Z,25.63
2022-12-25T19:04:10.791Z,25.65
2022-12-25T19:05:10.757Z,25.65
2022-12-25T19:06:10.730Z,25.62
2022-12-25T19:07:10.703Z,25.65
2022-12-25T19:08:10.674Z,25.63
2022-12-25T19:09:10.640Z,25.63
2022-12-25T19:10:10.613Z,25.60
2022-12-25T19:11:10.579Z,25.62
2022-12-25T19:12:10.554Z,25.63
2022-12-25T19:13:10.524Z,25.59
2022-12-25T19:14:10.513Z,25.62
2022-12-25T19:15:10.473Z,25.62
2022-12-25T19:16:10.560Z,25.60
2022-12-25T19:17:10.410Z,25.60
2022-12-25T19:18:10.371Z,25.62
2022-12-25T19:19:10.366Z,25.60
2022-12-25T19:20:10.308Z,25.62
2022-12-25T19:21:10.279Z,25.60
2022-12-25T19:22:10.271Z,25.63
2022-12-25T19:23:10.226Z,25.65
2022-12-25T19:24:10.204Z,25.62
2022-12-25T19:25:10.169Z,25.60
2022-12-25T19:26:10.182Z,25.60
2022-12-25T19:27:10.106Z,25.60
2022-12-25T19:28:10.082Z,25.60
2022-12-25T19:29:10.058Z,25.59
2022-12-25T19:30:10.035Z,25.62
2022-12-25T19:31:10.094Z,25.59
2022-12-25T19:32:10.136Z,25.60
2022-12-25T19:33:14.077Z,25.60
2022-12-25T19:34:09.910Z,25.56
2022-12-25T19:35:09.909Z,25.62
2022-12-25T19:36:09.867Z,25.59
2022-12-25T19:37:09.840Z,25.62
2022-12-25T19:38:09.815Z,25.59
2022-12-25T19:39:09.787Z,25.60
2022-12-25T19:40:09.752Z,25.62
2022-12-25T19:41:09.736Z,25.60
2022-12-25T19:42:09.714Z,25.59
2022-12-25T19:43:09.693Z,25.59
2022-12-25T19:44:09.660Z,25.59
2022-12-25T19:45:09.631Z,25.58
2022-12-25T19:46:09.631Z,25.59
2022-12-25T19:47:09.569Z,25.56
2022-12-25T19:48:09.534Z,25.60
2022-12-25T19:49:09.498Z,25.59
2022-12-25T19:50:09.470Z,25.54
2022-12-25T19:51:09.461Z,25.58
2022-12-25T19:52:09.421Z,25.58
2022-12-25T19:53:09.409Z,25.58
2022-12-25T19:54:09.350Z,25.56
2022-12-25T19:55:09.322Z,25.53
2022-12-25T19:56:09.304Z,25.56
2022-12-25T19:57:09.267Z,25.56
2022-12-25T19:58:09.239Z,25.56
2022-12-25T19:59:09.210Z,25.54
2022-12-25T20:00:09.179Z,25.56
2022-12-25T20:01:09.250Z,25.56
2022-12-25T20:02:09.326Z,25.56
2022-12-25T20:03:09.232Z,25.54
2022-12-25T20:04:09.070Z,25.56
2022-12-25T20:05:09.037Z,25.59
2022-12-25T20:06:09.022Z,25.56
2022-12-25T20:07:09.012Z,25.58
2022-12-25T20:08:08.970Z,25.59
2022-12-25T20:09:08.947Z,25.58
2022-12-25T20:10:08.911Z,25.59
2022-12-25T20:11:08.886Z,25.58
2022-12-25T20:12:08.865Z,25.60
2022-12-25T20:13:08.836Z,25.59
2022-12-25T20:14:08.808Z,25.60
2022-12-25T20:15:08.779Z,25.58
2022-12-25T20:16:08.775Z,25.60
2022-12-25T20:17:15.338Z,25.59
2022-12-25T20:18:08.694Z,25.60
2022-12-25T20:19:08.657Z,25.60
2022-12-25T20:20:08.649Z,25.62
2022-12-25T20:21:08.601Z,25.60
2022-12-25T20:22:08.575Z,25.58
2022-12-25T20:23:08.677Z,25.60
2022-12-25T20:24:08.516Z,25.60
2022-12-25T20:25:08.485Z,25.60
2022-12-25T20:26:08.458Z,25.60
2022-12-25T20:27:08.425Z,25.62
2022-12-25T20:28:08.406Z,25.62